sensor_id;sensor_type;location;lat;lon;timestamp;pressure;altitude;pressure_sealevel;temperature;humidity
47530;BME280;33272;51.922;7.730;2023-05-14T00:02:16;145301.84;;;11.30;100.00
47530;BME280;33272;51.922;7.730;2023-05-14T00:04:43;145289.16;;;11.25;100.00
47530;BME280;33272;51.922;7.730;2023-05-14T00:07:10;145277.75;;;11.20;100.00
47530;BME280;33272;51.922;7.730;2023-05-14T00:09:38;145268.88;;;11.17;100.00
47530;BME280;33272;51.922;7.730;2023-05-14T00:12:06;145253.66;;;11.10;100.00
47530;BME280;33272;51.922;7.730;2023-05-14T00:14:33;145242.22;;;11.06;100.00
47530;BME280;33272;51.922;7.730;2023-05-14T00:17:00;145229.59;;;11.01;100.00
47530;BME280;33272;51.922;7.730;2023-05-14T00:19:27;145219.41;;;10.97;100.00
47530;BME280;33272;51.922;7.730;2023-05-14T00:21:54;145209.28;;;10.93;100.00
47530;BME280;33272;51.922;7.730;2023-05-14T00:24:21;145200.41;;;10.89;100.00
47530;BME280;33272;51.922;7.730;2023-05-14T00:26:50;145196.56;;;10.87;100.00
47530;BME280;33272;51.922;7.730;2023-05-14T00:29:17;145188.97;;;10.84;100.00
47530;BME280;33272;51.922;7.730;2023-05-14T00:31:44;145183.94;;;10.82;100.00
47530;BME280;33272;51.922;7.730;2023-05-14T00:34:11;145180.09;;;10.81;100.00
47530;BME280;33272;51.922;7.730;2023-05-14T00:36:38;145169.97;;;10.77;100.00
47530;BME280;33272;51.922;7.730;2023-05-14T00:39:05;145167.47;;;10.76;100.00
47530;BME280;33272;51.922;7.730;2023-05-14T00:41:32;145158.59;;;10.72;100.00
47530;BME280;33272;51.922;7.730;2023-05-14T00:44:00;145152.25;;;10.70;100.00
47530;BME280;33272;51.922;7.730;2023-05-14T00:46:27;145142.06;;;10.65;100.00
47530;BME280;33272;51.922;7.730;2023-05-14T00:48:55;145143.38;;;10.66;100.00
47530;BME280;33272;51.922;7.730;2023-05-14T00:51:23;145138.28;;;10.64;100.00
47530;BME280;33272;51.922;7.730;2023-05-14T00:53:51;145139.56;;;10.64;100.00
47530;BME280;33272;51.922;7.730;2023-05-14T00:56:18;145142.06;;;10.65;100.00
47530;BME280;33272;51.922;7.730;2023-05-14T00:58:46;145133.22;;;10.62;100.00
47530;BME280;33272;51.922;7.730;2023-05-14T01:01:14;145128.16;;;10.60;100.00
47530;BME280;33272;51.922;7.730;2023-05-14T01:03:41;145121.81;;;10.57;100.00
47530;BME280;33272;51.922;7.730;2023-05-14T01:06:14;145112.94;;;10.54;100.00
47530;BME280;33272;51.922;7.730;2023-05-14T01:08:52;145105.34;;;10.51;100.00
47530;BME280;33272;51.922;7.730;2023-05-14T01:11:28;145099.00;;;10.48;100.00
47530;BME280;33272;51.922;7.730;2023-05-14T01:14:05;145095.22;;;10.47;100.00
47530;BME280;33272;51.922;7.730;2023-05-14T01:16:37;145093.91;;;10.46;100.00
47530;BME280;33272;51.922;7.730;2023-05-14T01:19:17;145096.50;;;10.47;100.00
47530;BME280;33272;51.922;7.730;2023-05-14T01:21:48;145093.91;;;10.46;100.00
47530;BME280;33272;51.922;7.730;2023-05-14T01:24:15;145087.63;;;10.43;100.00
47530;BME280;33272;51.922;7.730;2023-05-14T01:26:42;145087.63;;;10.43;100.00
47530;BME280;33272;51.922;7.730;2023-05-14T01:29:16;145074.94;;;10.38;100.00
47530;BME280;33272;51.922;7.730;2023-05-14T01:31:46;145074.94;;;10.38;100.00
47530;BME280;33272;51.922;7.730;2023-05-14T01:34:15;145069.84;;;10.36;100.00
47530;BME280;33272;51.922;7.730;2023-05-14T01:36:45;145072.41;;;10.37;100.00
47530;BME280;33272;51.922;7.730;2023-05-14T01:39:14;145073.66;;;10.38;100.00
47530;BME280;33272;51.922;7.730;2023-05-14T01:41:42;145072.41;;;10.37;100.00
47530;BME280;33272;51.922;7.730;2023-05-14T01:44:10;145077.44;;;10.39;100.00
47530;BME280;33272;51.922;7.730;2023-05-14T01:46:37;145074.94;;;10.38;100.00
47530;BME280;33272;51.922;7.730;2023-05-14T01:49:04;145071.09;;;10.37;100.00
47530;BME280;33272;51.922;7.730;2023-05-14T01:51:32;145073.66;;;10.38;100.00
47530;BME280;33272;51.922;7.730;2023-05-14T01:53:59;145068.59;;;10.36;100.00
47530;BME280;33272;51.922;7.730;2023-05-14T01:56:27;145069.84;;;10.36;100.00
47530;BME280;33272;51.922;7.730;2023-05-14T01:58:54;145068.59;;;10.36;100.00
47530;BME280;33272;51.922;7.730;2023-05-14T02:01:21;145069.84;;;10.36;100.00
47530;BME280;33272;51.922;7.730;2023-05-14T02:03:50;145073.66;;;10.38;100.00
47530;BME280;33272;51.922;7.730;2023-05-14T02:06:17;145067.31;;;10.35;100.00
47530;BME280;33272;51.922;7.730;2023-05-14T02:08:44;145063.50;;;10.34;100.00
47530;BME280;33272;51.922;7.730;2023-05-14T02:11:11;145059.72;;;10.32;100.00
47530;BME280;33272;51.922;7.730;2023-05-14T02:13:40;145058.47;;;10.32;100.00
47530;BME280;33272;51.922;7.730;2023-05-14T02:16:07;145058.47;;;10.32;100.00
47530;BME280;33272;51.922;7.730;2023-05-14T02:18:34;145054.63;;;10.30;100.00
47530;BME280;33272;51.922;7.730;2023-05-14T02:21:01;145049.59;;;10.28;100.00
47530;BME280;33272;51.922;7.730;2023-05-14T02:23:28;145043.19;;;10.26;100.00
47530;BME280;33272;51.922;7.730;2023-05-14T02:25:55;145036.84;;;10.23;100.00
47530;BME280;33272;51.922;7.730;2023-05-14T02:28:22;145031.78;;;10.21;100.00
47530;BME280;33272;51.922;7.730;2023-05-14T02:30:50;145025.47;;;10.18;100.00
47530;BME280;33272;51.922;7.730;2023-05-14T02:33:17;145008.97;;;10.12;100.00
47530;BME280;33272;51.922;7.730;2023-05-14T02:35:44;144997.59;;;10.07;100.00
47530;BME280;33272;51.922;7.730;2023-05-14T02:38:11;144986.22;;;10.03;100.00
47530;BME280;33272;51.922;7.730;2023-05-14T02:40:38;144978.59;;;10.00;100.00
47530;BME280;33272;51.922;7.730;2023-05-14T02:43:05;144967.19;;;9.95;100.00
47530;BME280;33272;51.922;7.730;2023-05-14T02:45:32;144953.22;;;9.89;100.00
47530;BME280;33272;51.922;7.730;2023-05-14T02:48:00;144944.38;;;9.86;100.00
47530;BME280;33272;51.922;7.730;2023-05-14T02:50:27;144935.50;;;9.82;100.00
47530;BME280;33272;51.922;7.730;2023-05-14T02:52:54;144922.81;;;9.77;100.00
47530;BME280;33272;51.922;7.730;2023-05-14T02:55:22;144915.22;;;9.74;100.00
47530;BME280;33272;51.922;7.730;2023-05-14T02:57:51;144907.69;;;9.71;100.00
47530;BME280;33272;51.922;7.730;2023-05-14T03:00:18;144900.06;;;9.68;100.00
47530;BME280;33272;51.922;7.730;2023-05-14T03:02:45;144889.91;;;9.64;100.00
47530;BME280;33272;51.922;7.730;2023-05-14T03:05:14;144889.91;;;9.64;100.00
47530;BME280;33272;51.922;7.730;2023-05-14T03:07:41;144878.53;;;9.59;100.00
47530;BME280;33272;51.922;7.730;2023-05-14T03:10:09;144870.94;;;9.56;100.00
47530;BME280;33272;51.922;7.730;2023-05-14T03:12:36;144859.50;;;9.51;100.00
47530;BME280;33272;51.922;7.730;2023-05-14T03:15:04;144857.00;;;9.50;100.00
47530;BME280;33272;51.922;7.730;2023-05-14T03:17:32;144851.91;;;9.48;100.00
47530;BME280;33272;51.922;7.730;2023-05-14T03:19:58;144846.88;;;9.46;100.00
47530;BME280;33272;51.922;7.730;2023-05-14T03:22:27;144841.78;;;9.44;100.00
47530;BME280;33272;51.922;7.730;2023-05-14T03:24:54;144835.47;;;9.42;100.00
47530;BME280;33272;51.922;7.730;2023-05-14T03:27:21;144829.13;;;9.39;100.00
47530;BME280;33272;51.922;7.730;2023-05-14T03:29:48;144816.47;;;9.34;100.00
47530;BME280;33272;51.922;7.730;2023-05-14T03:32:16;144810.16;;;9.32;100.00
47530;BME280;33272;51.922;7.730;2023-05-14T03:34:43;144800.03;;;9.27;100.00
47530;BME280;33272;51.922;7.730;2023-05-14T03:37:10;144797.47;;;9.26;100.00
47530;BME280;33272;51.922;7.730;2023-05-14T03:39:38;144792.44;;;9.24;100.00
47530;BME280;33272;51.922;7.730;2023-05-14T03:42:05;144787.34;;;9.22;100.00
47530;BME280;33272;51.922;7.730;2023-05-14T03:44:33;144786.09;;;9.22;100.00
47530;BME280;33272;51.922;7.730;2023-05-14T03:47:00;144787.34;;;9.22;100.00
47530;BME280;33272;51.922;7.730;2023-05-14T03:49:27;144783.56;;;9.21;100.00
47530;BME280;33272;51.922;7.730;2023-05-14T03:51:54;144783.56;;;9.21;100.00
47530;BME280;33272;51.922;7.730;2023-05-14T03:54:22;144789.88;;;9.23;100.00
47530;BME280;33272;51.922;7.730;2023-05-14T03:56:50;144798.78;;;9.27;100.00
47530;BME280;33272;51.922;7.730;2023-05-14T03:59:17;144810.16;;;9.32;100.00
47530;BME280;33272;51.922;7.730;2023-05-14T04:01:44;144822.81;;;9.37;100.00
47530;BME280;33272;51.922;7.730;2023-05-14T04:04:11;144831.69;;;9.40;100.00
47530;BME280;33272;51.922;7.730;2023-05-14T04:06:38;144845.63;;;9.46;100.00
47530;BME280;33272;51.922;7.730;2023-05-14T04:09:05;144857.00;;;9.50;100.00
47530;BME280;33272;51.922;7.730;2023-05-14T04:11:32;144868.38;;;9.55;100.00
47530;BME280;33272;51.922;7.730;2023-05-14T04:14:00;144881.06;;;9.60;100.00
47530;BME280;33272;51.922;7.730;2023-05-14T04:16:27;144892.47;;;9.65;100.00
47530;BME280;33272;51.922;7.730;2023-05-14T04:18:54;144910.19;;;9.72;100.00
47530;BME280;33272;51.922;7.730;2023-05-14T04:21:21;144920.31;;;9.76;100.00
47530;BME280;33272;51.922;7.730;2023-05-14T04:23:48;144940.59;;;9.84;100.00
47530;BME280;33272;51.922;7.730;2023-05-14T04:26:16;144962.09;;;9.93;100.00
47530;BME280;33272;51.922;7.730;2023-05-14T04:28:43;144989.97;;;10.04;100.00
47530;BME280;33272;51.922;7.730;2023-05-14T04:31:11;145020.41;;;10.16;100.00
47530;BME280;33272;51.922;7.730;2023-05-14T04:33:38;145053.38;;;10.30;100.00
47530;BME280;33272;51.922;7.730;2023-05-14T04:36:06;145086.31;;;10.43;100.00
47530;BME280;33272;51.922;7.730;2023-05-14T04:38:33;145118.00;;;10.56;100.00
47530;BME280;33272;51.922;7.730;2023-05-14T04:41:00;145149.69;;;10.68;100.00
47530;BME280;33272;51.922;7.730;2023-05-14T04:43:27;145185.19;;;10.83;100.00
47530;BME280;33272;51.922;7.730;2023-05-14T04:45:54;145228.31;;;11.00;100.00
47530;BME280;33272;51.922;7.730;2023-05-14T04:48:22;145272.66;;;11.18;100.00
47530;BME280;33272;51.922;7.730;2023-05-14T04:50:49;145314.56;;;11.35;100.00
47530;BME280;33272;51.922;7.730;2023-05-14T04:53:16;145355.13;;;11.51;100.00
47530;BME280;33272;51.922;7.730;2023-05-14T04:55:43;145391.88;;;11.66;100.00
47530;BME280;33272;51.922;7.730;2023-05-14T04:58:10;145427.44;;;11.80;100.00
47530;BME280;33272;51.922;7.730;2023-05-14T05:00:37;145455.41;;;11.92;100.00
47530;BME280;33272;51.922;7.730;2023-05-14T05:03:04;145478.19;;;12.01;100.00
47530;BME280;33272;51.922;7.730;2023-05-14T05:05:33;145503.63;;;12.11;100.00
47530;BME280;33272;51.922;7.730;2023-05-14T05:08:00;145521.38;;;12.18;100.00
47530;BME280;33272;51.922;7.730;2023-05-14T05:10:27;145529.00;;;12.21;100.00
47530;BME280;33272;51.922;7.730;2023-05-14T05:12:54;145537.88;;;12.25;100.00
47530;BME280;33272;51.922;7.730;2023-05-14T05:15:21;145535.34;;;12.24;100.00
47530;BME280;33272;51.922;7.730;2023-05-14T05:17:48;145532.78;;;12.23;100.00
47530;BME280;33272;51.922;7.730;2023-05-14T05:20:15;145526.47;;;12.20;100.00
47530;BME280;33272;51.922;7.730;2023-05-14T05:22:44;145520.09;;;12.18;100.00
47530;BME280;33272;51.922;7.730;2023-05-14T05:25:11;145516.28;;;12.16;100.00
47530;BME280;33272;51.922;7.730;2023-05-14T05:27:38;145507.41;;;12.13;100.00
47530;BME280;33272;51.922;7.730;2023-05-14T05:30:07;145501.03;;;12.10;100.00
47530;BME280;33272;51.922;7.730;2023-05-14T05:32:34;145499.78;;;12.10;100.00
47530;BME280;33272;51.922;7.730;2023-05-14T05:35:01;145501.03;;;12.10;100.00
47530;BME280;33272;51.922;7.730;2023-05-14T05:37:29;145527.72;;;12.21;100.00
47530;BME280;33272;51.922;7.730;2023-05-14T05:39:57;145575.94;;;12.40;100.00
47530;BME280;33272;51.922;7.730;2023-05-14T05:42:24;145633.06;;;12.63;100.00
47530;BME280;33272;51.922;7.730;2023-05-14T05:44:51;145705.44;;;12.92;100.00
47530;BME280;33272;51.922;7.730;2023-05-14T05:47:18;145846.47;;;13.49;100.00
47530;BME280;33272;51.922;7.730;2023-05-14T05:49:45;146019.34;;;14.19;100.00
47530;BME280;33272;51.922;7.730;2023-05-14T05:52:12;146179.59;;;14.83;100.00
47530;BME280;33272;51.922;7.730;2023-05-14T05:54:39;146334.78;;;15.45;100.00
47530;BME280;33272;51.922;7.730;2023-05-14T05:57:07;146487.56;;;16.07;100.00
47530;BME280;33272;51.922;7.730;2023-05-14T05:59:34;146607.25;;;16.55;100.00
47530;BME280;33272;51.922;7.730;2023-05-14T06:02:02;146705.41;;;16.94;100.00
47530;BME280;33272;51.922;7.730;2023-05-14T06:04:29;146790.75;;;17.28;100.00
47530;BME280;33272;51.922;7.730;2023-05-14T06:06:55;146862.13;;;17.57;100.00
47530;BME280;33272;51.922;7.730;2023-05-14T06:09:23;146924.66;;;17.82;100.00
47530;BME280;33272;51.922;7.730;2023-05-14T06:11:50;146962.91;;;17.97;100.00
47530;BME280;33272;51.922;7.730;2023-05-14T06:14:18;146997.31;;;18.11;100.00
47530;BME280;33272;51.922;7.730;2023-05-14T06:16:45;147033.03;;;18.25;100.00
47530;BME280;33272;51.922;7.730;2023-05-14T06:19:12;147085.28;;;18.46;100.00
47530;BME280;33272;51.922;7.730;2023-05-14T06:21:39;147112.09;;;18.57;100.00
47530;BME280;33272;51.922;7.730;2023-05-14T06:24:06;147146.53;;;18.71;100.00
47530;BME280;33272;51.922;7.730;2023-05-14T06:26:33;147193.78;;;18.90;100.00
47530;BME280;33272;51.922;7.730;2023-05-14T06:29:00;147226.94;;;19.03;100.00
47530;BME280;33272;51.922;7.730;2023-05-14T06:31:29;147256.31;;;19.15;100.00
47530;BME280;33272;51.922;7.730;2023-05-14T06:33:55;147292.00;;;19.29;100.00
47530;BME280;33272;51.922;7.730;2023-05-14T06:36:22;147346.91;;;19.51;100.00
47530;BME280;33272;51.922;7.730;2023-05-14T06:38:49;147395.50;;;19.71;98.61
47530;BME280;33272;51.922;7.730;2023-05-14T06:41:16;147461.88;;;19.97;97.96
47530;BME280;33272;51.922;7.730;2023-05-14T06:43:43;147512.97;;;20.18;97.28
47530;BME280;33272;51.922;7.730;2023-05-14T06:46:10;147542.31;;;20.29;96.18
47530;BME280;33272;51.922;7.730;2023-05-14T06:48:39;147557.66;;;20.35;94.72
47530;BME280;33272;51.922;7.730;2023-05-14T06:51:06;147530.84;;;20.25;94.49
47530;BME280;33272;51.922;7.730;2023-05-14T06:53:32;147496.31;;;20.11;93.95
47530;BME280;33272;51.922;7.730;2023-05-14T06:56:00;147477.19;;;20.03;93.79
47530;BME280;33272;51.922;7.730;2023-05-14T06:58:26;147458.06;;;19.96;93.47
47530;BME280;33272;51.922;7.730;2023-05-14T07:00:53;147426.09;;;19.83;93.21
47530;BME280;33272;51.922;7.730;2023-05-14T07:03:20;147408.22;;;19.76;93.10
47530;BME280;33272;51.922;7.730;2023-05-14T07:05:49;147415.91;;;19.79;92.91
47530;BME280;33272;51.922;7.730;2023-05-14T07:08:17;147437.63;;;19.87;92.88
47530;BME280;33272;51.922;7.730;2023-05-14T07:10:44;147460.59;;;19.97;93.11
47530;BME280;33272;51.922;7.730;2023-05-14T07:13:11;147482.31;;;20.05;92.77
47530;BME280;33272;51.922;7.730;2023-05-14T07:15:38;147475.94;;;20.03;92.16
47530;BME280;33272;51.922;7.730;2023-05-14T07:18:05;147479.72;;;20.04;92.24
47530;BME280;33272;51.922;7.730;2023-05-14T07:20:32;147500.19;;;20.12;92.42
47530;BME280;33272;51.922;7.730;2023-05-14T07:23:00;147523.19;;;20.22;92.82
47530;BME280;33272;51.922;7.730;2023-05-14T07:25:27;147537.25;;;20.27;92.12
47530;BME280;33272;51.922;7.730;2023-05-14T07:27:54;147542.31;;;20.29;91.87
47530;BME280;33272;51.922;7.730;2023-05-14T07:30:21;147516.78;;;20.19;90.83
47530;BME280;33272;51.922;7.730;2023-05-14T07:32:48;147507.84;;;20.16;90.83
47530;BME280;33272;51.922;7.730;2023-05-14T07:35:15;147529.56;;;20.24;90.95
47530;BME280;33272;51.922;7.730;2023-05-14T07:37:42;147537.25;;;20.27;90.58
47530;BME280;33272;51.922;7.730;2023-05-14T07:40:11;147558.91;;;20.36;91.25
47530;BME280;33272;51.922;7.730;2023-05-14T07:42:39;147574.25;;;20.42;90.34
47530;BME280;33272;51.922;7.730;2023-05-14T07:45:08;147583.19;;;20.46;89.29
47530;BME280;33272;51.922;7.730;2023-05-14T07:47:35;147576.84;;;20.43;89.20
47530;BME280;33272;51.922;7.730;2023-05-14T07:50:02;147589.56;;;20.48;89.78
47530;BME280;33272;51.922;7.730;2023-05-14T07:52:29;147603.69;;;20.54;89.89
47530;BME280;33272;51.922;7.730;2023-05-14T07:54:56;147638.16;;;20.68;89.98
47530;BME280;33272;51.922;7.730;2023-05-14T07:57:26;147673.97;;;20.82;88.94
47530;BME280;33272;51.922;7.730;2023-05-14T07:59:53;147695.69;;;20.91;89.16
47530;BME280;33272;51.922;7.730;2023-05-14T08:02:20;147689.28;;;20.88;88.36
47530;BME280;33272;51.922;7.730;2023-05-14T08:04:47;147662.44;;;20.77;88.01
47530;BME280;33272;51.922;7.730;2023-05-14T08:07:14;147634.34;;;20.66;88.01
47530;BME280;33272;51.922;7.730;2023-05-14T08:09:42;147604.94;;;20.54;88.14
47530;BME280;33272;51.922;7.730;2023-05-14T08:12:09;147579.38;;;20.44;88.20
47530;BME280;33272;51.922;7.730;2023-05-14T08:14:37;147597.28;;;20.51;89.12
47530;BME280;33272;51.922;7.730;2023-05-14T08:17:04;147619.03;;;20.60;88.63
47530;BME280;33272;51.922;7.730;2023-05-14T08:19:32;147650.94;;;20.73;88.09
47530;BME280;33272;51.922;7.730;2023-05-14T08:21:59;147673.97;;;20.82;87.67
47530;BME280;33272;51.922;7.730;2023-05-14T08:24:26;147672.69;;;20.81;86.24
47530;BME280;33272;51.922;7.730;2023-05-14T08:26:54;147672.69;;;20.81;85.41
47530;BME280;33272;51.922;7.730;2023-05-14T08:29:21;147680.34;;;20.85;85.60
47530;BME280;33272;51.922;7.730;2023-05-14T08:31:50;147690.56;;;20.89;85.20
47530;BME280;33272;51.922;7.730;2023-05-14T08:34:17;147714.84;;;20.98;84.63
47530;BME280;33272;51.922;7.730;2023-05-14T08:36:44;147726.38;;;21.03;83.26
47530;BME280;33272;51.922;7.730;2023-05-14T08:39:11;147712.28;;;20.97;83.54
47530;BME280;33272;51.922;7.730;2023-05-14T08:41:39;147714.84;;;20.98;82.84
47530;BME280;33272;51.922;7.730;2023-05-14T08:44:11;147712.28;;;20.97;81.84
47530;BME280;33272;51.922;7.730;2023-05-14T08:46:39;147728.91;;;21.04;83.59
47530;BME280;33272;51.922;7.730;2023-05-14T08:49:16;147773.66;;;21.22;82.71
47530;BME280;33272;51.922;7.730;2023-05-14T08:51:47;147795.34;;;21.30;82.42
47530;BME280;33272;51.922;7.730;2023-05-14T08:54:15;147840.16;;;21.48;82.41
47530;BME280;33272;51.922;7.730;2023-05-14T08:56:44;147855.47;;;21.55;80.08
47530;BME280;33272;51.922;7.730;2023-05-14T08:59:11;147824.81;;;21.42;80.95
47530;BME280;33272;51.922;7.730;2023-05-14T09:01:45;147786.41;;;21.27;79.93
47530;BME280;33272;51.922;7.730;2023-05-14T09:04:16;147748.06;;;21.12;80.20
47530;BME280;33272;51.922;7.730;2023-05-14T09:06:48;147735.31;;;21.06;80.53
47530;BME280;33272;51.922;7.730;2023-05-14T09:09:15;147763.38;;;21.18;80.41
47530;BME280;33272;51.922;7.730;2023-05-14T09:11:44;147785.13;;;21.26;80.03
47530;BME280;33272;51.922;7.730;2023-05-14T09:14:11;147781.31;;;21.25;80.22
47530;BME280;33272;51.922;7.730;2023-05-14T09:16:39;147771.06;;;21.21;79.00
47530;BME280;33272;51.922;7.730;2023-05-14T09:19:08;147759.56;;;21.16;80.22
47530;BME280;33272;51.922;7.730;2023-05-14T09:21:36;147787.66;;;21.27;79.68
47530;BME280;33272;51.922;7.730;2023-05-14T09:24:04;147804.28;;;21.34;79.49
47530;BME280;33272;51.922;7.730;2023-05-14T09:26:33;147836.34;;;21.47;78.74
47530;BME280;33272;51.922;7.730;2023-05-14T09:29:01;147837.59;;;21.47;78.75
47530;BME280;33272;51.922;7.730;2023-05-14T09:31:29;147861.88;;;21.57;78.75
47530;BME280;33272;51.922;7.730;2023-05-14T09:33:57;147886.19;;;21.67;77.83
47530;BME280;33272;51.922;7.730;2023-05-14T09:36:24;147906.59;;;21.75;77.88
47530;BME280;33272;51.922;7.730;2023-05-14T09:38:55;147920.69;;;21.81;76.81
47530;BME280;33272;51.922;7.730;2023-05-14T09:41:23;147907.91;;;21.75;76.13
47530;BME280;33272;51.922;7.730;2023-05-14T09:43:51;147910.47;;;21.77;76.04
47530;BME280;33272;51.922;7.730;2023-05-14T09:46:18;147915.59;;;21.79;75.92
47530;BME280;33272;51.922;7.730;2023-05-14T09:48:45;147923.28;;;21.82;75.11
47530;BME280;33272;51.922;7.730;2023-05-14T09:51:12;147932.22;;;21.85;75.88
47530;BME280;33272;51.922;7.730;2023-05-14T09:53:39;147956.50;;;21.95;75.54
47530;BME280;33272;51.922;7.730;2023-05-14T09:56:08;147978.25;;;22.04;74.95
47530;BME280;33272;51.922;7.730;2023-05-14T09:58:35;147992.28;;;22.09;75.33
47530;BME280;33272;51.922;7.730;2023-05-14T10:01:03;147993.56;;;22.10;74.53
47530;BME280;33272;51.922;7.730;2023-05-14T10:03:31;147970.59;;;22.01;74.32
47530;BME280;33272;51.922;7.730;2023-05-14T10:06:03;147962.91;;;21.97;74.27
47530;BME280;33272;51.922;7.730;2023-05-14T10:08:33;147957.78;;;21.95;74.99
47530;BME280;33272;51.922;7.730;2023-05-14T10:11:07;147960.31;;;21.96;75.16
47530;BME280;33272;51.922;7.730;2023-05-14T10:13:41;147965.44;;;21.98;73.75
47530;BME280;33272;51.922;7.730;2023-05-14T10:16:17;147971.84;;;22.01;73.22
47530;BME280;33272;51.922;7.730;2023-05-14T10:18:48;147956.50;;;21.95;73.61
47530;BME280;33272;51.922;7.730;2023-05-14T10:21:19;147968.00;;;21.99;73.72
47530;BME280;33272;51.922;7.730;2023-05-14T10:23:47;147989.75;;;22.08;73.48
47530;BME280;33272;51.922;7.730;2023-05-14T10:26:16;148016.63;;;22.19;73.08
47530;BME280;33272;51.922;7.730;2023-05-14T10:28:44;148008.94;;;22.16;73.39
47530;BME280;33272;51.922;7.730;2023-05-14T10:31:12;147980.78;;;22.05;73.01
47530;BME280;33272;51.922;7.730;2023-05-14T10:33:46;147962.91;;;21.97;72.63
47530;BME280;33272;51.922;7.730;2023-05-14T10:36:15;147962.91;;;21.97;73.27
47530;BME280;33272;51.922;7.730;2023-05-14T10:38:43;147952.66;;;21.93;73.28
47530;BME280;33272;51.922;7.730;2023-05-14T10:41:12;147992.28;;;22.09;71.13
47530;BME280;33272;51.922;7.730;2023-05-14T10:43:40;148030.72;;;22.25;69.55
47530;BME280;33272;51.922;7.730;2023-05-14T10:46:11;148039.66;;;22.28;68.58
47530;BME280;33272;51.922;7.730;2023-05-14T10:48:41;148035.84;;;22.27;68.01
47530;BME280;33272;51.922;7.730;2023-05-14T10:51:10;148035.84;;;22.27;68.65
47530;BME280;33272;51.922;7.730;2023-05-14T10:53:40;148076.75;;;22.43;69.25
47530;BME280;33272;51.922;7.730;2023-05-14T10:56:09;148098.53;;;22.52;67.21
47530;BME280;33272;51.922;7.730;2023-05-14T10:58:39;148136.91;;;22.67;67.64
47530;BME280;33272;51.922;7.730;2023-05-14T11:01:07;148144.59;;;22.70;65.09
47530;BME280;33272;51.922;7.730;2023-05-14T11:03:41;148172.72;;;22.81;64.06
47530;BME280;33272;51.922;7.730;2023-05-14T11:06:11;148171.44;;;22.81;62.77
47530;BME280;33272;51.922;7.730;2023-05-14T11:08:38;148175.25;;;22.82;62.86
47530;BME280;33272;51.922;7.730;2023-05-14T11:11:08;148179.13;;;22.84;62.57
47530;BME280;33272;51.922;7.730;2023-05-14T11:13:35;148204.75;;;22.94;62.76
47530;BME280;33272;51.922;7.730;2023-05-14T11:16:03;148223.97;;;23.02;61.65
47530;BME280;33272;51.922;7.730;2023-05-14T11:18:31;148241.88;;;23.09;61.05
47530;BME280;33272;51.922;7.730;2023-05-14T11:21:01;148248.28;;;23.11;61.64
47530;BME280;33272;51.922;7.730;2023-05-14T11:23:28;148263.63;;;23.18;61.38
47530;BME280;33272;51.922;7.730;2023-05-14T11:25:55;148275.13;;;23.22;61.08
47530;BME280;33272;51.922;7.730;2023-05-14T11:28:24;148298.19;;;23.31;61.09
47530;BME280;33272;51.922;7.730;2023-05-14T11:30:53;148287.97;;;23.27;60.35
47530;BME280;33272;51.922;7.730;2023-05-14T11:35:47;148364.72;;;23.58;61.23
47530;BME280;33272;51.922;7.730;2023-05-14T11:38:16;148405.78;;;23.74;60.66
47530;BME280;33272;51.922;7.730;2023-05-14T11:40:51;148407.06;;;23.75;60.34
47530;BME280;33272;51.922;7.730;2023-05-14T11:43:18;148409.59;;;23.76;60.60
47530;BME280;33272;51.922;7.730;2023-05-14T11:45:49;148410.88;;;23.76;59.96
47530;BME280;33272;51.922;7.730;2023-05-14T11:48:17;148421.16;;;23.80;59.82
47530;BME280;33272;51.922;7.730;2023-05-14T11:50:45;148442.88;;;23.89;59.77
47530;BME280;33272;51.922;7.730;2023-05-14T11:53:17;148458.25;;;23.95;58.50
47530;BME280;33272;51.922;7.730;2023-05-14T11:55:45;148485.19;;;24.06;57.97
47530;BME280;33272;51.922;7.730;2023-05-14T11:58:13;148510.78;;;24.16;58.52
47530;BME280;33272;51.922;7.730;2023-05-14T12:00:40;148524.88;;;24.22;59.00
47530;BME280;33272;51.922;7.730;2023-05-14T12:03:09;148542.81;;;24.29;58.05
47530;BME280;33272;51.922;7.730;2023-05-14T12:05:37;148559.44;;;24.36;57.65
47530;BME280;33272;51.922;7.730;2023-05-14T12:08:21;148563.31;;;24.37;54.91
47530;BME280;33272;51.922;7.730;2023-05-14T12:10:49;148583.84;;;24.45;58.03
47530;BME280;33272;51.922;7.730;2023-05-14T12:13:16;148600.47;;;24.52;57.51
47530;BME280;33272;51.922;7.730;2023-05-14T12:15:47;148650.47;;;24.72;57.01
47530;BME280;33272;51.922;7.730;2023-05-14T12:18:19;148708.13;;;24.95;55.91
47530;BME280;33272;51.922;7.730;2023-05-14T12:20:47;148728.66;;;25.03;54.87
47530;BME280;33272;51.922;7.730;2023-05-14T12:23:14;148764.56;;;25.17;55.18
47530;BME280;33272;51.922;7.730;2023-05-14T12:25:50;148782.50;;;25.25;53.49
47530;BME280;33272;51.922;7.730;2023-05-14T12:28:18;148823.56;;;25.41;53.50
47530;BME280;33272;51.922;7.730;2023-05-14T12:30:45;148901.72;;;25.72;52.96
47530;BME280;33272;51.922;7.730;2023-05-14T12:33:12;148990.28;;;26.07;52.54
47530;BME280;33272;51.922;7.730;2023-05-14T12:35:39;149017.19;;;26.18;52.57
47530;BME280;33272;51.922;7.730;2023-05-14T12:38:07;149039.00;;;26.27;52.63
47530;BME280;33272;51.922;7.730;2023-05-14T12:40:34;149032.59;;;26.24;51.89
47530;BME280;33272;51.922;7.730;2023-05-14T12:43:02;149031.31;;;26.24;51.55
47530;BME280;33272;51.922;7.730;2023-05-14T12:45:29;149033.84;;;26.25;50.95
47530;BME280;33272;51.922;7.730;2023-05-14T12:47:56;148991.56;;;26.08;51.21
47530;BME280;33272;51.922;7.730;2023-05-14T12:50:23;148946.66;;;25.90;51.65
47530;BME280;33272;51.922;7.730;2023-05-14T12:52:50;148903.03;;;25.73;50.90